sensor_id;sensor_type;location;lat;lon;timestamp;P1;durP1;ratioP1;P2;durP2;ratioP2
1376;SDS011;682;52.502;13.488;2024-02-04T00:01:32;5.87;;;2.80;;
1376;SDS011;682;52.502;13.488;2024-02-04T00:04:00;5.87;;;2.80;;
1376;SDS011;682;52.502;13.488;2024-02-04T00:06:27;9.47;;;3.33;;
1376;SDS011;682;52.502;13.488;2024-02-04T00:08:54;8.07;;;3.60;;
1376;SDS011;682;52.502;13.488;2024-02-04T00:11:21;9.60;;;3.63;;
1376;SDS011;682;52.502;13.488;2024-02-04T00:13:48;7.20;;;3.00;;
1376;SDS011;682;52.502;13.488;2024-02-04T00:16:15;7.33;;;2.73;;
1376;SDS011;682;52.502;13.488;2024-02-04T00:18:42;9.17;;;2.70;;
1376;SDS011;682;52.502;13.488;2024-02-04T00:21:10;6.97;;;2.70;;
1376;SDS011;682;52.502;13.488;2024-02-04T00:23:37;8.70;;;3.00;;
1376;SDS011;682;52.502;13.488;2024-02-04T00:26:04;6.00;;;2.63;;
1376;SDS011;682;52.502;13.488;2024-02-04T00:28:31;11.33;;;3.17;;
1376;SDS011;682;52.502;13.488;2024-02-04T00:30:58;5.10;;;2.27;;
1376;SDS011;682;52.502;13.488;2024-02-04T00:33:25;9.03;;;2.93;;
1376;SDS011;682;52.502;13.488;2024-02-04T00:35:52;8.23;;;3.50;;
1376;SDS011;682;52.502;13.488;2024-02-04T00:38:20;8.03;;;2.93;;
1376;SDS011;682;52.502;13.488;2024-02-04T00:40:47;6.07;;;2.80;;
1376;SDS011;682;52.502;13.488;2024-02-04T00:43:14;7.17;;;3.20;;
1376;SDS011;682;52.502;13.488;2024-02-04T00:45:41;8.70;;;3.00;;
1376;SDS011;682;52.502;13.488;2024-02-04T00:48:08;6.27;;;2.83;;
1376;SDS011;682;52.502;13.488;2024-02-04T00:50:35;6.37;;;2.90;;
1376;SDS011;682;52.502;13.488;2024-02-04T00:53:02;8.43;;;3.20;;
1376;SDS011;682;52.502;13.488;2024-02-04T00:55:31;10.73;;;3.60;;
1376;SDS011;682;52.502;13.488;2024-02-04T00:57:58;5.53;;;2.93;;
1376;SDS011;682;52.502;13.488;2024-02-04T01:00:27;5.50;;;2.83;;
1376;SDS011;682;52.502;13.488;2024-02-04T01:02:54;11.33;;;3.07;;
1376;SDS011;682;52.502;13.488;2024-02-04T01:05:21;10.47;;;3.57;;
1376;SDS011;682;52.502;13.488;2024-02-04T01:07:49;9.20;;;2.93;;
1376;SDS011;682;52.502;13.488;2024-02-04T01:10:16;11.90;;;3.10;;
1376;SDS011;682;52.502;13.488;2024-02-04T01:12:44;6.63;;;2.80;;
1376;SDS011;682;52.502;13.488;2024-02-04T01:15:11;9.63;;;2.90;;
1376;SDS011;682;52.502;13.488;2024-02-04T01:17:38;13.47;;;3.70;;
1376;SDS011;682;52.502;13.488;2024-02-04T01:20:05;9.77;;;3.22;;
1376;SDS011;682;52.502;13.488;2024-02-04T01:22:33;7.27;;;2.80;;
1376;SDS011;682;52.502;13.488;2024-02-04T01:25:01;8.13;;;2.67;;
1376;SDS011;682;52.502;13.488;2024-02-04T01:27:28;11.63;;;3.70;;
1376;SDS011;682;52.502;13.488;2024-02-04T01:29:56;6.57;;;3.00;;
1376;SDS011;682;52.502;13.488;2024-02-04T01:32:23;9.50;;;3.03;;
1376;SDS011;682;52.502;13.488;2024-02-04T01:34:49;5.50;;;2.50;;
1376;SDS011;682;52.502;13.488;2024-02-04T01:37:16;6.78;;;3.13;;
1376;SDS011;682;52.502;13.488;2024-02-04T01:39:43;8.30;;;3.07;;
1376;SDS011;682;52.502;13.488;2024-02-04T01:42:10;7.07;;;2.40;;
1376;SDS011;682;52.502;13.488;2024-02-04T01:44:37;5.00;;;2.90;;
1376;SDS011;682;52.502;13.488;2024-02-04T01:47:05;9.40;;;3.03;;
1376;SDS011;682;52.502;13.488;2024-02-04T01:49:33;7.00;;;3.13;;
1376;SDS011;682;52.502;13.488;2024-02-04T01:52:00;7.63;;;2.40;;
1376;SDS011;682;52.502;13.488;2024-02-04T01:54:29;16.63;;;5.17;;
1376;SDS011;682;52.502;13.488;2024-02-04T01:56:58;9.83;;;2.90;;
1376;SDS011;682;52.502;13.488;2024-02-04T01:59:26;8.97;;;3.20;;
1376;SDS011;682;52.502;13.488;2024-02-04T02:01:55;9.53;;;3.40;;
1376;SDS011;682;52.502;13.488;2024-02-04T02:04:25;9.33;;;4.07;;
1376;SDS011;682;52.502;13.488;2024-02-04T02:06:52;11.23;;;3.10;;
1376;SDS011;682;52.502;13.488;2024-02-04T02:09:20;7.40;;;2.50;;
1376;SDS011;682;52.502;13.488;2024-02-04T02:11:50;5.43;;;2.80;;
1376;SDS011;682;52.502;13.488;2024-02-04T02:14:23;7.27;;;3.20;;
1376;SDS011;682;52.502;13.488;2024-02-04T02:16:52;11.05;;;3.08;;
1376;SDS011;682;52.502;13.488;2024-02-04T02:19:35;8.13;;;3.03;;
1376;SDS011;682;52.502;13.488;2024-02-04T02:22:14;6.43;;;2.90;;
1376;SDS011;682;52.502;13.488;2024-02-04T02:24:51;6.30;;;3.43;;
1376;SDS011;682;52.502;13.488;2024-02-04T02:27:19;7.80;;;3.75;;
1376;SDS011;682;52.502;13.488;2024-02-04T02:29:46;10.55;;;3.83;;
1376;SDS011;682;52.502;13.488;2024-02-04T02:32:12;6.67;;;2.80;;
1376;SDS011;682;52.502;13.488;2024-02-04T02:34:40;4.35;;;2.55;;
1376;SDS011;682;52.502;13.488;2024-02-04T02:37:09;8.87;;;3.00;;
1376;SDS011;682;52.502;13.488;2024-02-04T02:39:48;12.35;;;3.13;;
1376;SDS011;682;52.502;13.488;2024-02-04T02:42:21;5.20;;;2.63;;
1376;SDS011;682;52.502;13.488;2024-02-04T02:44:49;6.70;;;2.50;;
1376;SDS011;682;52.502;13.488;2024-02-04T02:47:18;11.18;;;4.15;;
1376;SDS011;682;52.502;13.488;2024-02-04T02:49:47;6.35;;;3.20;;
1376;SDS011;682;52.502;13.488;2024-02-04T02:52:14;9.53;;;3.70;;
1376;SDS011;682;52.502;13.488;2024-02-04T02:54:40;9.67;;;3.73;;
1376;SDS011;682;52.502;13.488;2024-02-04T02:57:09;8.30;;;3.90;;
1376;SDS011;682;52.502;13.488;2024-02-04T02:59:36;9.75;;;3.28;;
1376;SDS011;682;52.502;13.488;2024-02-04T03:02:03;9.23;;;3.57;;
1376;SDS011;682;52.502;13.488;2024-02-04T03:04:30;9.07;;;3.23;;
1376;SDS011;682;52.502;13.488;2024-02-04T03:06:57;5.83;;;2.87;;
1376;SDS011;682;52.502;13.488;2024-02-04T03:09:24;8.27;;;3.75;;
1376;SDS011;682;52.502;13.488;2024-02-04T03:11:51;11.25;;;3.53;;
1376;SDS011;682;52.502;13.488;2024-02-04T03:14:19;9.27;;;3.10;;
1376;SDS011;682;52.502;13.488;2024-02-04T03:16:46;9.30;;;3.60;;
1376;SDS011;682;52.502;13.488;2024-02-04T03:19:13;17.88;;;4.43;;
1376;SDS011;682;52.502;13.488;2024-02-04T03:21:40;6.07;;;3.10;;
1376;SDS011;682;52.502;13.488;2024-02-04T03:24:07;5.73;;;3.50;;
1376;SDS011;682;52.502;13.488;2024-02-04T03:26:34;7.25;;;3.40;;
1376;SDS011;682;52.502;13.488;2024-02-04T03:29:01;6.93;;;3.83;;
1376;SDS011;682;52.502;13.488;2024-02-04T03:31:31;5.80;;;3.23;;
1376;SDS011;682;52.502;13.488;2024-02-04T03:33:58;6.07;;;3.65;;
1376;SDS011;682;52.502;13.488;2024-02-04T03:36:25;10.23;;;4.07;;
1376;SDS011;682;52.502;13.488;2024-02-04T03:38:52;6.32;;;3.40;;
1376;SDS011;682;52.502;13.488;2024-02-04T03:41:19;3.80;;;2.97;;
1376;SDS011;682;52.502;13.488;2024-02-04T03:43:45;5.33;;;4.13;;
1376;SDS011;682;52.502;13.488;2024-02-04T03:46:13;9.60;;;4.10;;
1376;SDS011;682;52.502;13.488;2024-02-04T03:48:42;7.93;;;3.97;;
1376;SDS011;682;52.502;13.488;2024-02-04T03:51:14;7.73;;;3.17;;
1376;SDS011;682;52.502;13.488;2024-02-04T03:53:42;9.63;;;3.67;;
1376;SDS011;682;52.502;13.488;2024-02-04T03:56:09;9.83;;;3.80;;
1376;SDS011;682;52.502;13.488;2024-02-04T03:58:36;8.80;;;4.00;;
1376;SDS011;682;52.502;13.488;2024-02-04T04:01:03;7.40;;;3.27;;
1376;SDS011;682;52.502;13.488;2024-02-04T04:03:30;8.40;;;3.33;;
1376;SDS011;682;52.502;13.488;2024-02-04T04:05:58;5.70;;;2.60;;
1376;SDS011;682;52.502;13.488;2024-02-04T04:08:25;7.07;;;3.63;;
1376;SDS011;682;52.502;13.488;2024-02-04T04:10:52;7.82;;;3.92;;
1376;SDS011;682;52.502;13.488;2024-02-04T04:13:19;7.35;;;3.53;;
1376;SDS011;682;52.502;13.488;2024-02-04T04:15:46;6.93;;;3.53;;
1376;SDS011;682;52.502;13.488;2024-02-04T04:18:12;5.78;;;3.03;;
1376;SDS011;682;52.502;13.488;2024-02-04T04:20:40;7.40;;;3.10;;
1376;SDS011;682;52.502;13.488;2024-02-04T04:23:08;4.70;;;2.93;;
1376;SDS011;682;52.502;13.488;2024-02-04T04:25:35;6.07;;;3.77;;
1376;SDS011;682;52.502;13.488;2024-02-04T04:28:02;8.05;;;4.20;;
1376;SDS011;682;52.502;13.488;2024-02-04T04:30:29;5.03;;;2.80;;
1376;SDS011;682;52.502;13.488;2024-02-04T04:32:56;8.33;;;3.60;;
1376;SDS011;682;52.502;13.488;2024-02-04T04:35:24;5.87;;;2.80;;
1376;SDS011;682;52.502;13.488;2024-02-04T04:37:51;8.45;;;3.20;;
1376;SDS011;682;52.502;13.488;2024-02-04T04:40:19;4.90;;;3.13;;
1376;SDS011;682;52.502;13.488;2024-02-04T04:42:46;4.90;;;3.00;;
1376;SDS011;682;52.502;13.488;2024-02-04T04:45:13;7.07;;;3.40;;
1376;SDS011;682;52.502;13.488;2024-02-04T04:47:41;7.65;;;3.35;;
1376;SDS011;682;52.502;13.488;2024-02-04T04:50:08;5.93;;;3.70;;
1376;SDS011;682;52.502;13.488;2024-02-04T04:52:35;6.80;;;3.80;;
1376;SDS011;682;52.502;13.488;2024-02-04T04:55:02;6.18;;;3.08;;
1376;SDS011;682;52.502;13.488;2024-02-04T04:57:30;9.68;;;3.75;;
1376;SDS011;682;52.502;13.488;2024-02-04T04:59:57;10.93;;;3.58;;
1376;SDS011;682;52.502;13.488;2024-02-04T05:02:29;8.13;;;2.33;;
1376;SDS011;682;52.502;13.488;2024-02-04T05:04:56;8.65;;;3.50;;
1376;SDS011;682;52.502;13.488;2024-02-04T05:07:23;6.72;;;3.05;;
1376;SDS011;682;52.502;13.488;2024-02-04T05:09:51;6.78;;;3.65;;
1376;SDS011;682;52.502;13.488;2024-02-04T05:12:18;6.57;;;3.03;;
1376;SDS011;682;52.502;13.488;2024-02-04T05:14:47;7.30;;;2.60;;
1376;SDS011;682;52.502;13.488;2024-02-04T05:17:14;5.18;;;2.50;;
1376;SDS011;682;52.502;13.488;2024-02-04T05:19:41;9.43;;;2.90;;
1376;SDS011;682;52.502;13.488;2024-02-04T05:22:08;5.50;;;2.60;;
1376;SDS011;682;52.502;13.488;2024-02-04T05:24:35;5.90;;;2.28;;
1376;SDS011;682;52.502;13.488;2024-02-04T05:27:02;5.13;;;2.97;;
1376;SDS011;682;52.502;13.488;2024-02-04T05:29:30;7.33;;;2.33;;
1376;SDS011;682;52.502;13.488;2024-02-04T05:31:59;8.32;;;3.10;;
1376;SDS011;682;52.502;13.488;2024-02-04T05:34:26;5.25;;;3.38;;
1376;SDS011;682;52.502;13.488;2024-02-04T05:36:55;4.13;;;2.20;;
1376;SDS011;682;52.502;13.488;2024-02-04T05:39:22;5.43;;;2.07;;
1376;SDS011;682;52.502;13.488;2024-02-04T05:41:49;5.93;;;2.67;;
1376;SDS011;682;52.502;13.488;2024-02-04T05:44:16;5.18;;;2.58;;
1376;SDS011;682;52.502;13.488;2024-02-04T05:46:43;5.10;;;2.35;;
1376;SDS011;682;52.502;13.488;2024-02-04T05:49:12;7.53;;;3.13;;
1376;SDS011;682;52.502;13.488;2024-02-04T05:51:40;5.07;;;2.60;;
1376;SDS011;682;52.502;13.488;2024-02-04T05:54:08;7.57;;;2.60;;
1376;SDS011;682;52.502;13.488;2024-02-04T05:56:35;4.70;;;2.67;;
1376;SDS011;682;52.502;13.488;2024-02-04T05:59:02;4.80;;;2.88;;
1376;SDS011;682;52.502;13.488;2024-02-04T06:01:29;5.77;;;3.37;;
1376;SDS011;682;52.502;13.488;2024-02-04T06:03:56;4.37;;;2.73;;
1376;SDS011;682;52.502;13.488;2024-02-04T06:06:24;7.73;;;2.70;;
1376;SDS011;682;52.502;13.488;2024-02-04T06:08:51;5.20;;;3.03;;
1376;SDS011;682;52.502;13.488;2024-02-04T06:11:18;4.40;;;2.70;;
1376;SDS011;682;52.502;13.488;2024-02-04T06:13:45;8.37;;;3.53;;
1376;SDS011;682;52.502;13.488;2024-02-04T06:16:12;5.10;;;2.70;;
1376;SDS011;682;52.502;13.488;2024-02-04T06:18:39;6.80;;;3.30;;
1376;SDS011;682;52.502;13.488;2024-02-04T06:21:06;7.77;;;3.20;;
1376;SDS011;682;52.502;13.488;2024-02-04T06:23:34;5.87;;;3.00;;
1376;SDS011;682;52.502;13.488;2024-02-04T06:26:04;6.63;;;3.00;;
1376;SDS011;682;52.502;13.488;2024-02-04T06:28:32;9.25;;;3.97;;
1376;SDS011;682;52.502;13.488;2024-02-04T06:30:59;4.07;;;2.70;;
1376;SDS011;682;52.502;13.488;2024-02-04T06:33:26;6.10;;;2.37;;
1376;SDS011;682;52.502;13.488;2024-02-04T06:35:53;6.60;;;3.00;;
1376;SDS011;682;52.502;13.488;2024-02-04T06:38:19;12.73;;;3.08;;
1376;SDS011;682;52.502;13.488;2024-02-04T06:40:48;5.85;;;3.28;;
1376;SDS011;682;52.502;13.488;2024-02-04T06:43:15;7.20;;;2.75;;
1376;SDS011;682;52.502;13.488;2024-02-04T06:45:42;7.20;;;3.33;;
1376;SDS011;682;52.502;13.488;2024-02-04T06:48:09;13.57;;;3.70;;
1376;SDS011;682;52.502;13.488;2024-02-04T06:50:36;9.67;;;4.17;;
1376;SDS011;682;52.502;13.488;2024-02-04T06:53:03;6.72;;;3.92;;
1376;SDS011;682;52.502;13.488;2024-02-04T06:55:33;6.10;;;4.30;;
1376;SDS011;682;52.502;13.488;2024-02-04T06:58:01;6.18;;;4.38;;
1376;SDS011;682;52.502;13.488;2024-02-04T07:00:28;6.90;;;4.50;;
1376;SDS011;682;52.502;13.488;2024-02-04T07:02:55;6.57;;;4.60;;
1376;SDS011;682;52.502;13.488;2024-02-04T07:05:22;11.57;;;4.57;;
1376;SDS011;682;52.502;13.488;2024-02-04T07:07:50;6.30;;;4.38;;
1376;SDS011;682;52.502;13.488;2024-02-04T07:10:17;6.00;;;5.10;;
1376;SDS011;682;52.502;13.488;2024-02-04T07:12:44;10.65;;;5.03;;
1376;SDS011;682;52.502;13.488;2024-02-04T07:15:12;6.30;;;4.70;;
1376;SDS011;682;52.502;13.488;2024-02-04T07:17:39;6.18;;;5.10;;
1376;SDS011;682;52.502;13.488;2024-02-04T07:20:07;8.97;;;5.37;;
1376;SDS011;682;52.502;13.488;2024-02-04T07:22:34;8.27;;;4.70;;
1376;SDS011;682;52.502;13.488;2024-02-04T07:25:01;9.17;;;5.60;;
1376;SDS011;682;52.502;13.488;2024-02-04T07:27:28;8.97;;;6.63;;
1376;SDS011;682;52.502;13.488;2024-02-04T07:29:56;7.10;;;4.40;;
1376;SDS011;682;52.502;13.488;2024-02-04T07:32:24;12.17;;;5.50;;
1376;SDS011;682;52.502;13.488;2024-02-04T07:34:51;8.13;;;5.47;;
1376;SDS011;682;52.502;13.488;2024-02-04T07:37:19;8.10;;;5.23;;
1376;SDS011;682;52.502;13.488;2024-02-04T07:39:46;7.43;;;5.50;;
1376;SDS011;682;52.502;13.488;2024-02-04T07:42:13;8.23;;;5.27;;
1376;SDS011;682;52.502;13.488;2024-02-04T07:44:40;9.63;;;5.03;;
1376;SDS011;682;52.502;13.488;2024-02-04T07:47:07;10.03;;;5.40;;
1376;SDS011;682;52.502;13.488;2024-02-04T07:49:35;9.30;;;4.90;;
1376;SDS011;682;52.502;13.488;2024-02-04T07:52:02;9.20;;;5.03;;
1376;SDS011;682;52.502;13.488;2024-02-04T07:54:30;8.52;;;5.90;;
1376;SDS011;682;52.502;13.488;2024-02-04T07:56:57;7.23;;;5.10;;
1376;SDS011;682;52.502;13.488;2024-02-04T07:59:24;6.47;;;4.90;;
1376;SDS011;682;52.502;13.488;2024-02-04T08:01:50;8.70;;;4.97;;
1376;SDS011;682;52.502;13.488;2024-02-04T08:04:18;9.23;;;5.10;;
1376;SDS011;682;52.502;13.488;2024-02-04T08:06:46;8.73;;;4.93;;
1376;SDS011;682;52.502;13.488;2024-02-04T08:09:13;8.37;;;4.60;;
1376;SDS011;682;52.502;13.488;2024-02-04T08:11:40;10.57;;;5.13;;
1376;SDS011;682;52.502;13.488;2024-02-04T08:14:07;6.18;;;4.72;;
1376;SDS011;682;52.502;13.488;2024-02-04T08:16:34;8.20;;;4.83;;
1376;SDS011;682;52.502;13.488;2024-02-04T08:19:01;9.40;;;5.47;;
1376;SDS011;682;52.502;13.488;2024-02-04T08:21:31;11.47;;;5.67;;
1376;SDS011;682;52.502;13.488;2024-02-04T08:23:59;9.40;;;5.50;;
1376;SDS011;682;52.502;13.488;2024-02-04T08:26:26;10.43;;;5.13;;
1376;SDS011;682;52.502;13.488;2024-02-04T08:28:53;7.03;;;4.70;;
1376;SDS011;682;52.502;13.488;2024-02-04T08:31:20;8.53;;;5.00;;
1376;SDS011;682;52.502;13.488;2024-02-04T08:33:47;11.33;;;5.00;;
1376;SDS011;682;52.502;13.488;2024-02-04T08:36:14;8.67;;;4.97;;
1376;SDS011;682;52.502;13.488;2024-02-04T08:38:41;9.53;;;4.57;;
1376;SDS011;682;52.502;13.488;2024-02-04T08:41:09;6.83;;;3.80;;
1376;SDS011;682;52.502;13.488;2024-02-04T08:43:36;8.30;;;3.93;;
1376;SDS011;682;52.502;13.488;2024-02-04T08:46:04;6.60;;;3.77;;
1376;SDS011;682;52.502;13.488;2024-02-04T08:48:31;7.13;;;3.60;;
1376;SDS011;682;52.502;13.488;2024-02-04T08:50:58;5.00;;;3.50;;
1376;SDS011;682;52.502;13.488;2024-02-04T08:53:25;7.20;;;3.87;;
1376;SDS011;682;52.502;13.488;2024-02-04T08:55:52;10.27;;;4.20;;
1376;SDS011;682;52.502;13.488;2024-02-04T08:58:21;7.93;;;3.47;;
1376;SDS011;682;52.502;13.488;2024-02-04T09:00:49;10.17;;;3.70;;
1376;SDS011;682;52.502;13.488;2024-02-04T09:03:16;11.43;;;3.40;;
1376;SDS011;682;52.502;13.488;2024-02-04T09:05:42;9.97;;;3.33;;
1376;SDS011;682;52.502;13.488;2024-02-04T09:08:09;8.23;;;3.37;;
1376;SDS011;682;52.502;13.488;2024-02-04T09:10:37;5.13;;;3.43;;
1376;SDS011;682;52.502;13.488;2024-02-04T09:13:03;8.67;;;3.60;;
1376;SDS011;682;52.502;13.488;2024-02-04T09:15:32;6.40;;;3.30;;
1376;SDS011;682;52.502;13.488;2024-02-04T09:17:59;9.83;;;3.40;;
1376;SDS011;682;52.502;13.488;2024-02-04T09:20:26;7.90;;;3.40;;
1376;SDS011;682;52.502;13.488;2024-02-04T09:22:53;5.33;;;3.00;;
1376;SDS011;682;52.502;13.488;2024-02-04T09:25:19;9.63;;;3.83;;
1376;SDS011;682;52.502;13.488;2024-02-04T09:27:46;6.30;;;4.00;;
1376;SDS011;682;52.502;13.488;2024-02-04T09:30:13;9.90;;;3.20;;
1376;SDS011;682;52.502;13.488;2024-02-04T09:32:42;4.80;;;3.33;;
1376;SDS011;682;52.502;13.488;2024-02-04T09:35:09;9.20;;;3.90;;
1376;SDS011;682;52.502;13.488;2024-02-04T09:37:36;6.77;;;3.93;;
1376;SDS011;682;52.502;13.488;2024-02-04T09:40:03;5.77;;;2.63;;
1376;SDS011;682;52.502;13.488;2024-02-04T09:42:31;8.53;;;3.53;;
1376;SDS011;682;52.502;13.488;2024-02-04T09:44:58;5.73;;;2.70;;
1376;SDS011;682;52.502;13.488;2024-02-04T09:47:25;7.93;;;3.43;;
1376;SDS011;682;52.502;13.488;2024-02-04T09:49:54;5.47;;;2.87;;
1376;SDS011;682;52.502;13.488;2024-02-04T09:52:21;6.17;;;2.73;;
1376;SDS011;682;52.502;13.488;2024-02-04T09:54:55;5.67;;;2.73;;
1376;SDS011;682;52.502;13.488;2024-02-04T09:57:25;5.60;;;2.30;;
1376;SDS011;682;52.502;13.488;2024-02-04T09:59:52;8.50;;;2.60;;
1376;SDS011;682;52.502;13.488;2024-02-04T10:02:19;6.50;;;2.57;;
1376;SDS011;682;52.502;13.488;2024-02-04T10:04:47;5.80;;;2.40;;
1376;SDS011;682;52.502;13.488;2024-02-04T10:07:16;5.73;;;2.77;;
1376;SDS011;682;52.502;13.488;2024-02-04T10:09:44;7.20;;;2.57;;
1376;SDS011;682;52.502;13.488;2024-02-04T10:12:11;5.53;;;2.20;;
1376;SDS011;682;52.502;13.488;2024-02-04T10:14:38;6.50;;;2.87;;
1376;SDS011;682;52.502;13.488;2024-02-04T10:17:05;6.20;;;2.60;;
1376;SDS011;682;52.502;13.488;2024-02-04T10:19:33;4.50;;;1.90;;
1376;SDS011;682;52.502;13.488;2024-02-04T10:22:00;3.20;;;1.83;;
1376;SDS011;682;52.502;13.488;2024-02-04T10:24:29;4.00;;;2.10;;
1376;SDS011;682;52.502;13.488;2024-02-04T10:26:56;3.97;;;1.90;;
1376;SDS011;682;52.502;13.488;2024-02-04T10:29:24;5.67;;;1.70;;
1376;SDS011;682;52.502;13.488;2024-02-04T10:31:53;3.57;;;1.70;;
1376;SDS011;682;52.502;13.488;2024-02-04T10:34:21;2.73;;;1.50;;
1376;SDS011;682;52.502;13.488;2024-02-04T10:36:49;4.17;;;2.00;;
1376;SDS011;682;52.502;13.488;2024-02-04T10:39:16;5.80;;;1.67;;
1376;SDS011;682;52.502;13.488;2024-02-04T10:41:47;6.43;;;2.00;;
1376;SDS011;682;52.502;13.488;2024-02-04T10:44:17;4.67;;;2.30;;
1376;SDS011;682;52.502;13.488;2024-02-04T10:46:48;4.80;;;1.80;;
1376;SDS011;682;52.502;13.488;2024-02-04T10:49:18;4.50;;;1.90;;
1376;SDS011;682;52.502;13.488;2024-02-04T10:51:45;2.93;;;2.03;;
1376;SDS011;682;52.502;13.488;2024-02-04T10:54:14;3.43;;;1.73;;
1376;SDS011;682;52.502;13.488;2024-02-04T10:56:44;4.80;;;2.27;;
1376;SDS011;682;52.502;13.488;2024-02-04T10:59:14;4.33;;;2.33;;
1376;SDS011;682;52.502;13.488;2024-02-04T11:01:45;2.40;;;1.33;;
1376;SDS011;682;52.502;13.488;2024-02-04T11:04:13;3.40;;;1.83;;
1376;SDS011;682;52.502;13.488;2024-02-04T11:06:43;10.00;;;2.57;;
1376;SDS011;682;52.502;13.488;2024-02-04T11:09:11;4.43;;;2.30;;
1376;SDS011;682;52.502;13.488;2024-02-04T11:11:39;8.00;;;2.63;;
1376;SDS011;682;52.502;13.488;2024-02-04T11:14:10;5.27;;;1.97;;
1376;SDS011;682;52.502;13.488;2024-02-04T11:16:48;6.80;;;3.00;;
1376;SDS011;682;52.502;13.488;2024-02-04T11:19:35;2.40;;;1.73;;
1376;SDS011;682;52.502;13.488;2024-02-04T11:22:32;5.90;;;1.87;;
1376;SDS011;682;52.502;13.488;2024-02-04T11:25:26;3.97;;;2.97;;
1376;SDS011;682;52.502;13.488;2024-02-04T11:28:09;7.60;;;2.37;;
1376;SDS011;682;52.502;13.488;2024-02-04T11:30:43;4.00;;;1.97;;
1376;SDS011;682;52.502;13.488;2024-02-04T11:33:11;4.63;;;1.73;;
1376;SDS011;682;52.502;13.488;2024-02-04T11:35:39;6.43;;;2.37;;
1376;SDS011;682;52.502;13.488;2024-02-04T11:38:06;5.00;;;2.37;;
1376;SDS011;682;52.502;13.488;2024-02-04T11:40:34;5.90;;;2.43;;
1376;SDS011;682;52.502;13.488;2024-02-04T11:43:03;6.60;;;2.17;;
1376;SDS011;682;52.502;13.488;2024-02-04T11:45:31;3.97;;;1.70;;
1376;SDS011;682;52.502;13.488;2024-02-04T11:48:01;6.97;;;2.43;;
1376;SDS011;682;52.502;13.488;2024-02-04T11:50:29;8.57;;;2.67;;
1376;SDS011;682;52.502;13.488;2024-02-04T11:53:05;5.30;;;2.60;;
1376;SDS011;682;52.502;13.488;2024-02-04T11:55:33;9.00;;;2.07;;
1376;SDS011;682;52.502;13.488;2024-02-04T11:58:01;4.00;;;2.17;;
1376;SDS011;682;52.502;13.488;2024-02-04T12:00:28;3.67;;;2.47;;
1376;SDS011;682;52.502;13.488;2024-02-04T12:03:03;6.00;;;2.60;;
1376;SDS011;682;52.502;13.488;2024-02-04T12:05:32;4.63;;;1.93;;
1376;SDS011;682;52.502;13.488;2024-02-04T12:08:01;7.93;;;2.37;;
1376;SDS011;682;52.502;13.488;2024-02-04T12:10:30;7.40;;;2.00;;
1376;SDS011;682;52.502;13.488;2024-02-04T12:12:58;3.83;;;2.30;;
1376;SDS011;682;52.502;13.488;2024-02-04T12:15:25;2.90;;;1.57;;
1376;SDS011;682;52.502;13.488;2024-02-04T12:17:52;7.90;;;2.73;;
1376;SDS011;682;52.502;13.488;2024-02-04T12:20:21;5.13;;;2.00;;
1376;SDS011;682;52.502;13.488;2024-02-04T12:22:48;5.83;;;2.03;;
1376;SDS011;682;52.502;13.488;2024-02-04T12:25:15;5.17;;;2.27;;
1376;SDS011;682;52.502;13.488;2024-02-04T12:27:43;6.87;;;2.40;;
1376;SDS011;682;52.502;13.488;2024-02-04T12:30:13;4.80;;;1.97;;
1376;SDS011;682;52.502;13.488;2024-02-04T12:32:40;5.03;;;1.93;;
1376;SDS011;682;52.502;13.488;2024-02-04T12:35:07;5.67;;;2.10;;
1376;SDS011;682;52.502;13.488;2024-02-04T12:37:36;7.23;;;2.47;;
1376;SDS011;682;52.502;13.488;2024-02-04T12:40:03;3.33;;;1.70;;
1376;SDS011;682;52.502;13.488;2024-02-04T12:42:31;3.13;;;1.83;;
1376;SDS011;682;52.502;13.488;2024-02-04T12:44:58;5.40;;;3.00;;
1376;SDS011;682;52.502;13.488;2024-02-04T12:47:26;8.00;;;2.30;;
1376;SDS011;682;52.502;13.488;2024-02-04T12:49:58;5.63;;;2.40;;
1376;SDS011;682;52.502;13.488;2024-02-04T12:52:27;6.33;;;2.10;;
1376;SDS011;682;52.502;13.488;2024-02-04T12:54:57;3.80;;;2.63;;
1376;SDS011;682;52.502;13.488;2024-02-04T12:57:24;6.00;;;1.60;;
1376;SDS011;682;52.502;13.488;2024-02-04T12:59:52;3.40;;;1.80;;
1376;SDS011;682;52.502;13.488;2024-02-04T13:02:30;4.03;;;2.00;;
1376;SDS011;682;52.502;13.488;2024-02-04T13:04:58;4.60;;;2.00;;
1376;SDS011;682;52.502;13.488;2024-02-04T13:07:25;4.83;;;2.10;;
1376;SDS011;682;52.502;13.488;2024-02-04T13:09:58;3.80;;;1.67;;
1376;SDS011;682;52.502;13.488;2024-02-04T13:12:25;6.30;;;2.20;;
1376;SDS011;682;52.502;13.488;2024-02-04T13:14:52;8.10;;;2.30;;
1376;SDS011;682;52.502;13.488;2024-02-04T13:17:19;6.67;;;2.00;;
1376;SDS011;682;52.502;13.488;2024-02-04T13:19:46;4.40;;;1.80;;
1376;SDS011;682;52.502;13.488;2024-02-04T13:22:13;5.43;;;1.90;;
1376;SDS011;682;52.502;13.488;2024-02-04T13:24:40;5.13;;;2.70;;
1376;SDS011;682;52.502;13.488;2024-02-04T13:27:09;7.03;;;1.77;;
1376;SDS011;682;52.502;13.488;2024-02-04T13:29:36;6.57;;;2.00;;
1376;SDS011;682;52.502;13.488;2024-02-04T13:32:03;5.77;;;2.03;;
1376;SDS011;682;52.502;13.488;2024-02-04T13:34:30;5.67;;;2.10;;
1376;SDS011;682;52.502;13.488;2024-02-04T13:37:00;5.30;;;2.20;;
1376;SDS011;682;52.502;13.488;2024-02-04T13:39:27;4.40;;;1.97;;
1376;SDS011;682;52.502;13.488;2024-02-04T13:41:54;5.83;;;2.30;;
1376;SDS011;682;52.502;13.488;2024-02-04T13:44:22;5.40;;;2.20;;
1376;SDS011;682;52.502;13.488;2024-02-04T13:46:49;5.03;;;2.20;;
1376;SDS011;682;52.502;13.488;2024-02-04T13:49:16;6.10;;;2.23;;
1376;SDS011;682;52.502;13.488;2024-02-04T13:51:43;4.90;;;1.80;;
1376;SDS011;682;52.502;13.488;2024-02-04T13:54:10;3.73;;;2.10;;
1376;SDS011;682;52.502;13.488;2024-02-04T13:56:40;7.23;;;2.33;;
1376;SDS011;682;52.502;13.488;2024-02-04T13:59:07;4.87;;;2.20;;
1376;SDS011;682;52.502;13.488;2024-02-04T14:01:35;6.30;;;2.23;;
1376;SDS011;682;52.502;13.488;2024-02-04T14:04:02;5.07;;;2.30;;
1376;SDS011;682;52.502;13.488;2024-02-04T14:06:29;8.70;;;2.70;;
1376;SDS011;682;52.502;13.488;2024-02-04T14:08:56;4.23;;;2.17;;
1376;SDS011;682;52.502;13.488;2024-02-04T14:11:23;7.03;;;2.17;;
1376;SDS011;682;52.502;13.488;2024-02-04T14:13:50;6.93;;;2.40;;
1376;SDS011;682;52.502;13.488;2024-02-04T14:16:17;5.30;;;2.10;;
1376;SDS011;682;52.502;13.488;2024-02-04T14:18:46;7.90;;;2.20;;
1376;SDS011;682;52.502;13.488;2024-02-04T14:21:13;7.73;;;2.90;;
1376;SDS011;682;52.502;13.488;2024-02-04T14:23:40;5.97;;;2.07;;
1376;SDS011;682;52.502;13.488;2024-02-04T14:26:08;4.20;;;2.47;;
1376;SDS011;682;52.502;13.488;2024-02-04T14:28:41;7.77;;;2.57;;
1376;SDS011;682;52.502;13.488;2024-02-04T14:31:08;6.20;;;2.57;;
1376;SDS011;682;52.502;13.488;2024-02-04T14:33:35;5.70;;;2.30;;
1376;SDS011;682;52.502;13.488;2024-02-04T14:36:04;4.10;;;2.23;;
1376;SDS011;682;52.502;13.488;2024-02-04T14:38:32;7.40;;;3.00;;
1376;SDS011;682;52.502;13.488;2024-02-04T14:41:02;8.53;;;2.60;;
1376;SDS011;682;52.502;13.488;2024-02-04T14:43:29;4.83;;;3.03;;
1376;SDS011;682;52.502;13.488;2024-02-04T14:45:56;8.23;;;2.80;;
1376;SDS011;682;52.502;13.488;2024-02-04T14:48:26;4.70;;;3.10;;
1376;SDS011;682;52.502;13.488;2024-02-04T14:50:53;5.93;;;3.17;;
1376;SDS011;682;52.502;13.488;2024-02-04T14:53:23;5.07;;;2.90;;
1376;SDS011;682;52.502;13.488;2024-02-04T14:55:49;8.00;;;2.30;;
1376;SDS011;682;52.502;13.488;2024-02-04T14:58:16;10.07;;;3.23;;
1376;SDS011;682;52.502;13.488;2024-02-04T15:00:44;4.13;;;2.63;;
1376;SDS011;682;52.502;13.488;2024-02-04T15:03:10;7.83;;;3.63;;
1376;SDS011;682;52.502;13.488;2024-02-04T15:05:37;5.07;;;2.57;;
1376;SDS011;682;52.502;13.488;2024-02-04T15:08:06;5.83;;;2.70;;
1376;SDS011;682;52.502;13.488;2024-02-04T15:10:34;5.77;;;2.40;;
1376;SDS011;682;52.502;13.488;2024-02-04T15:13:02;4.20;;;2.60;;
1376;SDS011;682;52.502;13.488;2024-02-04T15:15:30;5.80;;;2.57;;
1376;SDS011;682;52.502;13.488;2024-02-04T15:17:58;9.37;;;2.80;;
1376;SDS011;682;52.502;13.488;2024-02-04T15:20:25;4.53;;;2.40;;